Terminal Aerodrome Forecast
Issued by NWS

Current Version | Previous Version | Text Only | Print | Product List | Glossary On
Versions: 1 2 3 4 5 6 7 8 9 10 11 12
000
FTUS45 KPSR 261721
TAFBLH
TAF
KBLH 261721Z 2618/2718 36012KT P6SM FEW250
      TEMPO 2618/2620 35012G18KT
     FM262100 35006KT P6SM SKC=

USA.gov is the U.S. government's official web portal to all federal, state and local government web resources and services.